createdAt,value
2023-01-22T00:02:36.909Z,92.66
2023-01-22T00:07:38.448Z,92.85
2023-01-22T00:12:39.953Z,92.31
2023-01-22T00:17:41.378Z,92.70
2023-01-22T00:22:42.774Z,93.21
2023-01-22T00:27:44.217Z,92.60
2023-01-22T00:32:46.517Z,93.25
2023-01-22T00:37:48.336Z,92.53
2023-01-22T00:42:49.752Z,92.24
2023-01-22T00:47:52.385Z,92.13
2023-01-22T00:52:53.932Z,92.74
2023-01-22T00:57:55.362Z,92.27
2023-01-22T01:03:15.248Z,92.44
2023-01-22T01:08:16.647Z,91.51
2023-01-22T01:13:18.065Z,91.84
2023-01-22T01:18:21.033Z,91.84
2023-01-22T01:23:23.668Z,91.55
2023-01-22T01:28:25.555Z,92.11
2023-01-22T01:33:27.014Z,91.84
2023-01-22T01:38:28.921Z,91.58
2023-01-22T01:43:30.665Z,91.46
2023-01-22T01:48:40.393Z,90.84
2023-01-22T01:53:44.589Z,89.81
2023-01-22T01:58:47.191Z,90.02
2023-01-22T02:03:49.130Z,90.79
2023-01-22T02:08:53.654Z,90.89
2023-01-22T02:14:04.706Z,90.17
2023-01-22T02:19:06.165Z,91.50
2023-01-22T02:24:16.705Z,90.79
2023-01-22T02:29:18.145Z,89.56
2023-01-22T02:34:19.638Z,90.32
2023-01-22T02:39:21.125Z,91.17
2023-01-22T02:44:22.548Z,91.03
2023-01-22T02:49:24.216Z,90.85
2023-01-22T02:54:25.712Z,90.38
2023-01-22T02:59:27.132Z,91.11
2023-01-22T03:04:28.921Z,90.71
2023-01-22T03:09:30.429Z,90.50
2023-01-22T03:14:50.344Z,90.79
2023-01-22T03:20:10.400Z,91.03
2023-01-22T03:25:11.860Z,90.83
2023-01-22T03:30:13.392Z,90.65
2023-01-22T03:35:14.973Z,90.20
2023-01-22T03:40:17.023Z,90.13
2023-01-22T03:45:18.598Z,90.26
2023-01-22T03:50:20.203Z,89.63
2023-01-22T03:55:21.752Z,90.53
2023-01-22T04:00:23.163Z,90.05
2023-01-22T04:05:24.682Z,89.65
2023-01-22T04:10:26.112Z,90.09
2023-01-22T04:15:27.578Z,90.46
2023-01-22T04:20:29.029Z,89.78
2023-01-22T04:25:30.453Z,89.95
2023-01-22T04:30:32.556Z,89.14
2023-01-22T04:35:35.399Z,88.63
2023-01-22T04:40:36.849Z,89.35
2023-01-22T04:45:38.316Z,88.97
2023-01-22T04:50:39.891Z,89.76
2023-01-22T04:55:42.475Z,88.60
2023-01-22T05:00:43.922Z,88.71
2023-01-22T05:05:45.412Z,88.81
2023-01-22T05:10:46.862Z,87.64
2023-01-22T05:15:48.280Z,87.94
2023-01-22T05:20:49.789Z,87.85
2023-01-22T05:25:51.416Z,87.34
2023-01-22T05:30:52.917Z,87.22
2023-01-22T05:36:01.902Z,86.91
2023-01-22T05:41:03.354Z,86.90
2023-01-22T05:46:05.326Z,86.45
2023-01-22T05:51:08.410Z,84.85
2023-01-22T05:56:10.148Z,83.63
2023-01-22T06:01:12.390Z,83.50
2023-01-22T06:06:15.586Z,83.07
2023-01-22T06:11:17.213Z,81.65
2023-01-22T06:16:18.703Z,82.16
2023-01-22T06:21:20.148Z,81.86
2023-01-22T06:26:21.647Z,81.76
2023-01-22T06:31:23.412Z,81.91
2023-01-22T06:36:24.941Z,82.41
2023-01-22T06:41:26.429Z,81.51
2023-01-22T06:46:27.911Z,81.96
2023-01-22T06:51:30.061Z,81.77
2023-01-22T06:56:31.658Z,81.78
2023-01-22T07:01:33.135Z,81.84
2023-01-22T07:06:34.588Z,81.70
2023-01-22T07:11:36.038Z,81.21
2023-01-22T07:16:37.588Z,81.28
2023-01-22T07:21:39.007Z,81.51
2023-01-22T07:26:40.453Z,81.71
2023-01-22T07:31:42.703Z,82.01
2023-01-22T07:36:46.590Z,82.44
2023-01-22T07:41:48.046Z,82.51
2023-01-22T07:46:49.545Z,83.16
2023-01-22T07:51:51.059Z,83.36
2023-01-22T07:56:52.531Z,83.67
2023-01-22T08:01:55.105Z,83.68
2023-01-22T08:06:56.520Z,83.77
2023-01-22T08:11:57.965Z,84.94
2023-01-22T08:16:59.377Z,84.87
2023-01-22T08:22:00.899Z,84.79
2023-01-22T08:27:02.955Z,84.81
2023-01-22T08:32:04.698Z,84.33
2023-01-22T08:37:07.330Z,84.45
2023-01-22T08:42:08.740Z,83.91
2023-01-22T08:47:11.488Z,83.93
2023-01-22T08:52:13.017Z,83.90
2023-01-22T08:57:15.784Z,83.86
2023-01-22T09:02:17.330Z,83.24
2023-01-22T09:07:18.857Z,83.24
2023-01-22T09:12:20.370Z,83.29
2023-01-22T09:17:21.774Z,83.96
2023-01-22T09:22:23.332Z,83.94
2023-01-22T09:27:24.795Z,84.16
2023-01-22T09:32:26.311Z,84.20
2023-01-22T09:37:27.768Z,84.36
2023-01-22T09:42:34.903Z,84.46
2023-01-22T09:47:49.056Z,85.07
2023-01-22T09:52:53.454Z,84.60
2023-01-22T09:57:56.376Z,85.03
2023-01-22T10:03:05.385Z,85.08
2023-01-22T10:08:13.655Z,85.43
2023-01-22T10:13:18.201Z,84.87
2023-01-22T10:18:38.646Z,85.43
2023-01-22T10:23:40.096Z,85.23
2023-01-22T10:28:47.705Z,85.50
2023-01-22T10:33:55.620Z,85.32
2023-01-22T10:39:15.323Z,86.31
2023-01-22T10:44:23.373Z,86.23
2023-01-22T10:49:27.503Z,86.36
2023-01-22T10:54:43.754Z,86.26
2023-01-22T11:00:02.906Z,86.67
2023-01-22T11:05:24.730Z,87.06
2023-01-22T11:10:38.507Z,86.88
2023-01-22T11:16:10.938Z,87.25
2023-01-22T11:21:25.885Z,87.21
2023-01-22T11:26:31.651Z,87.68
2023-01-22T11:31:44.596Z,87.79
2023-01-22T11:36:55.381Z,87.60
2023-01-22T11:42:17.347Z,86.84
2023-01-22T11:47:33.667Z,87.30
2023-01-22T11:52:50.020Z,87.14
2023-01-22T11:58:08.649Z,87.24
2023-01-22T12:03:31.688Z,86.72
2023-01-22T12:08:43.459Z,86.31
2023-01-22T12:14:10.713Z,86.33
2023-01-22T12:19:46.128Z,86.28
2023-01-22T12:25:03.202Z,85.90
2023-01-22T12:30:27.359Z,85.42
2023-01-22T12:35:31.481Z,85.16
2023-01-22T12:41:03.729Z,85.26
2023-01-22T12:46:18.717Z,85.05
2023-01-22T12:51:39.906Z,85.89
2023-01-22T12:56:41.381Z,86.21
2023-01-22T13:01:43.652Z,86.52
2023-01-22T13:06:46.261Z,86.52
2023-01-22T13:11:47.744Z,86.73
2023-01-22T13:16:56.386Z,86.85
2023-01-22T13:21:59.741Z,86.84
2023-01-22T13:27:03.343Z,86.55
2023-01-22T13:32:16.012Z,86.76
2023-01-22T13:37:25.415Z,86.81
2023-01-22T13:42:27.809Z,87.20
2023-01-22T13:47:33.145Z,86.48
2023-01-22T13:52:34.833Z,86.85
2023-01-22T13:57:36.249Z,86.92
2023-01-22T14:02:37.691Z,87.03
2023-01-22T14:07:39.575Z,87.23
2023-01-22T14:12:41.046Z,86.83
2023-01-22T14:17:42.486Z,86.60
2023-01-22T14:22:43.928Z,86.78
2023-01-22T14:27:47.620Z,86.60
2023-01-22T14:32:49.078Z,87.06
2023-01-22T14:37:52.215Z,87.31
2023-01-22T14:42:53.813Z,88.04
2023-01-22T14:47:56.204Z,88.08
2023-01-22T14:52:57.711Z,87.94
2023-01-22T14:58:00.415Z,87.68
2023-01-22T15:03:02.148Z,88.37
2023-01-22T15:08:03.791Z,89.78
2023-01-22T15:13:05.223Z,90.13
2023-01-22T15:18:06.667Z,89.92
2023-01-22T15:23:08.101Z,88.71
2023-01-22T15:28:09.509Z,90.11
2023-01-22T15:33:10.915Z,89.87
2023-01-22T15:38:12.333Z,89.57
2023-01-22T15:43:13.743Z,90.26
2023-01-22T15:48:16.691Z,91.50
2023-01-22T15:53:18.148Z,91.57
2023-01-22T15:58:19.728Z,91.83
2023-01-22T16:03:21.152Z,91.17
2023-01-22T16:08:22.586Z,91.76
2023-01-22T16:13:24.060Z,91.32
2023-01-22T16:18:25.798Z,91.59
2023-01-22T16:23:27.392Z,91.77
2023-01-22T16:28:28.880Z,92.32
2023-01-22T16:33:32.720Z,92.16
2023-01-22T16:38:36.432Z,92.16
2023-01-22T16:43:37.925Z,92.19
2023-01-22T16:48:39.449Z,92.28
2023-01-22T16:53:40.896Z,92.67
2023-01-22T16:58:42.635Z,92.12
2023-01-22T17:03:44.529Z,92.06
2023-01-22T17:08:45.959Z,91.00
2023-01-22T17:13:47.723Z,91.19
2023-01-22T17:18:49.168Z,90.85
2023-01-22T17:23:50.638Z,91.37
2023-01-22T17:28:53.259Z,91.82
2023-01-22T17:33:55.900Z,92.36
2023-01-22T17:38:57.843Z,92.41
2023-01-22T17:44:00.844Z,92.72
2023-01-22T17:49:04.501Z,92.15
2023-01-22T17:54:06.321Z,92.85
2023-01-22T17:59:07.925Z,92.11
2023-01-22T18:04:11.738Z,91.39
2023-01-22T18:09:13.447Z,92.16
2023-01-22T18:14:22.394Z,91.66
2023-01-22T18:19:24.654Z,92.02
2023-01-22T18:24:27.037Z,91.96
2023-01-22T18:29:28.597Z,91.99
2023-01-22T18:34:30.099Z,91.75
2023-01-22T18:39:31.617Z,91.72
2023-01-22T18:44:33.042Z,91.80
2023-01-22T18:49:34.464Z,92.36
2023-01-22T18:54:36.302Z,92.44
2023-01-22T18:59:37.820Z,92.07
2023-01-22T19:04:39.245Z,92.15
2023-01-22T19:09:41.173Z,92.25
2023-01-22T19:14:42.578Z,92.29
2023-01-22T19:19:44.006Z,92.30
2023-01-22T19:24:45.741Z,92.10
2023-01-22T19:29:47.997Z,92.27
2023-01-22T19:34:49.406Z,92.04
2023-01-22T19:39:51.174Z,92.24
2023-01-22T19:44:52.957Z,92.72
2023-01-22T19:49:54.427Z,93.21
2023-01-22T19:54:55.911Z,92.99
2023-01-22T19:59:59.098Z,93.06
2023-01-22T20:05:00.565Z,93.46
2023-01-22T20:10:02.039Z,92.68
2023-01-22T20:15:04.579Z,93.21
2023-01-22T20:20:06.593Z,93.05
2023-01-22T20:25:09.115Z,92.93
2023-01-22T20:30:11.049Z,92.93
2023-01-22T20:35:15.483Z,93.24
2023-01-22T20:40:17.176Z,93.02
2023-01-22T20:45:18.871Z,92.49
2023-01-22T20:50:20.474Z,93.14
2023-01-22T20:55:24.708Z,93.00
2023-01-22T21:00:26.338Z,92.33
2023-01-22T21:05:28.685Z,93.22
2023-01-22T21:10:30.090Z,93.46
2023-01-22T21:15:33.521Z,93.05
2023-01-22T21:20:37.306Z,93.17
2023-01-22T21:25:38.999Z,93.98
2023-01-22T21:30:40.547Z,93.36
2023-01-22T21:35:48.364Z,92.67
2023-01-22T21:40:49.789Z,93.12
2023-01-22T21:46:09.925Z,92.16
2023-01-22T21:51:11.426Z,92.14
2023-01-22T21:56:12.863Z,91.92
2023-01-22T22:01:17.737Z,93.30
2023-01-22T22:06:19.368Z,93.99
2023-01-22T22:11:20.820Z,93.43
2023-01-22T22:16:23.035Z,93.85
2023-01-22T22:21:24.816Z,93.65
2023-01-22T22:26:26.297Z,93.43
2023-01-22T22:31:27.880Z,94.17
2023-01-22T22:36:30.702Z,93.21
2023-01-22T22:41:34.111Z,92.72
2023-01-22T22:46:37.921Z,93.41
2023-01-22T22:51:41.910Z,92.04
2023-01-22T22:56:44.742Z,93.20
2023-01-22T23:01:47.175Z,93.50
2023-01-22T23:06:48.636Z,94.10
2023-01-22T23:11:55.923Z,93.83
2023-01-22T23:16:57.837Z,92.61
2023-01-22T23:22:00.626Z,92.84
2023-01-22T23:27:02.197Z,92.09
2023-01-22T23:32:03.772Z,93.18
2023-01-22T23:37:05.178Z,92.79
2023-01-22T23:42:06.597Z,93.01
2023-01-22T23:47:08.008Z,93.71
2023-01-22T23:52:09.446Z,93.95
2023-01-22T23:57:10.877Z,93.77
